sensor_id;sensor_type;location;lat;lon;timestamp;temperature;humidity
46508;DHT22;32223;53.654;10.014;2023-06-22T00:02:25;17.40;99.90
46508;DHT22;32223;53.654;10.014;2023-06-22T00:04:50;17.40;99.90
46508;DHT22;32223;53.654;10.014;2023-06-22T00:07:16;17.30;99.90
46508;DHT22;32223;53.654;10.014;2023-06-22T00:09:41;17.30;99.90
46508;DHT22;32223;53.654;10.014;2023-06-22T00:12:07;17.30;99.90
46508;DHT22;32223;53.654;10.014;2023-06-22T00:14:33;17.30;99.90
46508;DHT22;32223;53.654;10.014;2023-06-22T00:16:59;17.30;99.90
46508;DHT22;32223;53.654;10.014;2023-06-22T00:19:24;17.20;99.90
46508;DHT22;32223;53.654;10.014;2023-06-22T00:21:50;17.20;99.90
46508;DHT22;32223;53.654;10.014;2023-06-22T00:24:19;17.20;99.90
46508;DHT22;32223;53.654;10.014;2023-06-22T00:26:45;17.20;99.90
46508;DHT22;32223;53.654;10.014;2023-06-22T00:29:11;17.10;99.90
46508;DHT22;32223;53.654;10.014;2023-06-22T00:31:36;17.10;99.90
46508;DHT22;32223;53.654;10.014;2023-06-22T00:34:02;17.00;99.90
46508;DHT22;32223;53.654;10.014;2023-06-22T00:36:28;17.00;99.90
46508;DHT22;32223;53.654;10.014;2023-06-22T00:38:53;17.00;99.90
46508;DHT22;32223;53.654;10.014;2023-06-22T00:41:19;17.00;99.90
46508;DHT22;32223;53.654;10.014;2023-06-22T00:43:45;17.00;99.90
46508;DHT22;32223;53.654;10.014;2023-06-22T00:46:11;16.90;99.90
46508;DHT22;32223;53.654;10.014;2023-06-22T00:48:37;16.90;99.90
46508;DHT22;32223;53.654;10.014;2023-06-22T00:51:03;16.90;99.90
46508;DHT22;32223;53.654;10.014;2023-06-22T00:53:29;16.90;99.90
46508;DHT22;32223;53.654;10.014;2023-06-22T00:55:55;16.90;99.90
46508;DHT22;32223;53.654;10.014;2023-06-22T00:58:21;16.80;99.90
46508;DHT22;32223;53.654;10.014;2023-06-22T01:00:47;16.80;99.90
46508;DHT22;32223;53.654;10.014;2023-06-22T01:03:13;16.80;99.90
46508;DHT22;32223;53.654;10.014;2023-06-22T01:05:39;16.70;99.90
46508;DHT22;32223;53.654;10.014;2023-06-22T01:10:55;16.70;99.90
46508;DHT22;32223;53.654;10.014;2023-06-22T01:16:02;16.70;99.90
46508;DHT22;32223;53.654;10.014;2023-06-22T01:18:30;16.70;99.90
46508;DHT22;32223;53.654;10.014;2023-06-22T01:20:57;16.70;99.90
46508;DHT22;32223;53.654;10.014;2023-06-22T01:28:45;16.80;99.90
46508;DHT22;32223;53.654;10.014;2023-06-22T01:31:14;16.80;99.90
46508;DHT22;32223;53.654;10.014;2023-06-22T01:33:43;16.70;99.90
46508;DHT22;32223;53.654;10.014;2023-06-22T01:36:10;16.70;99.90
46508;DHT22;32223;53.654;10.014;2023-06-22T01:38:37;16.70;99.90
46508;DHT22;32223;53.654;10.014;2023-06-22T01:41:03;16.70;99.90
46508;DHT22;32223;53.654;10.014;2023-06-22T01:43:30;16.70;99.90
46508;DHT22;32223;53.654;10.014;2023-06-22T01:45:57;16.70;99.90
46508;DHT22;32223;53.654;10.014;2023-06-22T01:48:23;16.70;99.90
46508;DHT22;32223;53.654;10.014;2023-06-22T01:50:51;16.70;99.90
46508;DHT22;32223;53.654;10.014;2023-06-22T01:53:17;16.70;99.90
46508;DHT22;32223;53.654;10.014;2023-06-22T01:55:43;16.70;99.90
46508;DHT22;32223;53.654;10.014;2023-06-22T01:58:08;16.70;99.90
46508;DHT22;32223;53.654;10.014;2023-06-22T02:00:37;16.60;99.90
46508;DHT22;32223;53.654;10.014;2023-06-22T02:03:10;16.60;99.90
46508;DHT22;32223;53.654;10.014;2023-06-22T02:05:43;16.70;99.90
46508;DHT22;32223;53.654;10.014;2023-06-22T02:08:19;16.60;99.90
46508;DHT22;32223;53.654;10.014;2023-06-22T02:10:47;16.60;99.90
46508;DHT22;32223;53.654;10.014;2023-06-22T02:13:14;16.60;99.90
46508;DHT22;32223;53.654;10.014;2023-06-22T02:15:42;16.60;99.90
46508;DHT22;32223;53.654;10.014;2023-06-22T02:18:07;16.60;99.90
46508;DHT22;32223;53.654;10.014;2023-06-22T02:20:37;16.60;99.90
46508;DHT22;32223;53.654;10.014;2023-06-22T02:23:02;16.60;99.90
46508;DHT22;32223;53.654;10.014;2023-06-22T02:25:28;16.60;99.90
46508;DHT22;32223;53.654;10.014;2023-06-22T02:27:53;16.60;99.90
46508;DHT22;32223;53.654;10.014;2023-06-22T02:30:19;16.60;99.90
46508;DHT22;32223;53.654;10.014;2023-06-22T02:32:45;16.50;99.90
46508;DHT22;32223;53.654;10.014;2023-06-22T02:35:10;16.50;99.90
46508;DHT22;32223;53.654;10.014;2023-06-22T02:37:37;16.50;99.90
46508;DHT22;32223;53.654;10.014;2023-06-22T02:40:08;16.50;99.90
46508;DHT22;32223;53.654;10.014;2023-06-22T02:42:39;16.50;99.90
46508;DHT22;32223;53.654;10.014;2023-06-22T02:45:05;16.40;99.90
46508;DHT22;32223;53.654;10.014;2023-06-22T02:47:31;16.40;99.90
46508;DHT22;32223;53.654;10.014;2023-06-22T02:49:57;16.50;99.90
46508;DHT22;32223;53.654;10.014;2023-06-22T02:52:22;16.40;99.90
46508;DHT22;32223;53.654;10.014;2023-06-22T02:54:48;16.40;99.90
46508;DHT22;32223;53.654;10.014;2023-06-22T02:57:13;16.40;99.90
46508;DHT22;32223;53.654;10.014;2023-06-22T02:59:42;16.40;99.90
46508;DHT22;32223;53.654;10.014;2023-06-22T03:02:08;16.30;99.90
46508;DHT22;32223;53.654;10.014;2023-06-22T03:04:35;16.30;99.90
46508;DHT22;32223;53.654;10.014;2023-06-22T03:07:01;16.30;99.90
46508;DHT22;32223;53.654;10.014;2023-06-22T03:09:27;16.30;99.90
46508;DHT22;32223;53.654;10.014;2023-06-22T03:11:53;16.30;99.90
46508;DHT22;32223;53.654;10.014;2023-06-22T03:14:19;16.40;99.90
46508;DHT22;32223;53.654;10.014;2023-06-22T03:16:45;16.40;99.90
46508;DHT22;32223;53.654;10.014;2023-06-22T03:19:11;16.60;99.90
46508;DHT22;32223;53.654;10.014;2023-06-22T03:21:37;16.60;99.90
46508;DHT22;32223;53.654;10.014;2023-06-22T03:24:04;16.50;99.90
46508;DHT22;32223;53.654;10.014;2023-06-22T03:26:30;16.50;99.90
46508;DHT22;32223;53.654;10.014;2023-06-22T03:28:56;16.50;99.90
46508;DHT22;32223;53.654;10.014;2023-06-22T03:31:22;16.60;99.90
46508;DHT22;32223;53.654;10.014;2023-06-22T03:33:49;16.60;99.90
46508;DHT22;32223;53.654;10.014;2023-06-22T03:36:16;16.70;99.90
46508;DHT22;32223;53.654;10.014;2023-06-22T03:38:47;16.70;99.90
46508;DHT22;32223;53.654;10.014;2023-06-22T03:41:13;16.70;99.90
46508;DHT22;32223;53.654;10.014;2023-06-22T03:43:39;16.70;99.90
46508;DHT22;32223;53.654;10.014;2023-06-22T03:46:05;16.70;99.90
46508;DHT22;32223;53.654;10.014;2023-06-22T03:48:31;16.70;99.90
46508;DHT22;32223;53.654;10.014;2023-06-22T03:50:59;16.70;99.90
46508;DHT22;32223;53.654;10.014;2023-06-22T03:53:25;16.80;99.90
46508;DHT22;32223;53.654;10.014;2023-06-22T03:55:52;16.80;99.90
46508;DHT22;32223;53.654;10.014;2023-06-22T03:58:18;16.70;99.90
46508;DHT22;32223;53.654;10.014;2023-06-22T04:00:49;16.70;99.90
46508;DHT22;32223;53.654;10.014;2023-06-22T04:03:15;16.70;99.90
46508;DHT22;32223;53.654;10.014;2023-06-22T04:05:41;16.70;99.90
46508;DHT22;32223;53.654;10.014;2023-06-22T04:08:07;16.70;99.90
46508;DHT22;32223;53.654;10.014;2023-06-22T04:10:33;16.70;99.90
46508;DHT22;32223;53.654;10.014;2023-06-22T04:12:59;16.80;99.90
46508;DHT22;32223;53.654;10.014;2023-06-22T04:15:24;16.90;99.90
46508;DHT22;32223;53.654;10.014;2023-06-22T04:17:50;16.90;99.90
46508;DHT22;32223;53.654;10.014;2023-06-22T04:20:16;17.00;99.90
46508;DHT22;32223;53.654;10.014;2023-06-22T04:22:41;17.10;99.90
46508;DHT22;32223;53.654;10.014;2023-06-22T04:25:07;17.10;99.90
46508;DHT22;32223;53.654;10.014;2023-06-22T04:27:33;17.10;99.90
46508;DHT22;32223;53.654;10.014;2023-06-22T04:30:03;17.10;99.90
46508;DHT22;32223;53.654;10.014;2023-06-22T04:32:29;17.20;99.90
46508;DHT22;32223;53.654;10.014;2023-06-22T04:34:54;17.20;99.90
46508;DHT22;32223;53.654;10.014;2023-06-22T04:37:20;17.20;99.90
46508;DHT22;32223;53.654;10.014;2023-06-22T04:39:49;17.30;99.90
46508;DHT22;32223;53.654;10.014;2023-06-22T04:42:14;17.30;99.90
46508;DHT22;32223;53.654;10.014;2023-06-22T04:44:40;17.30;99.90
46508;DHT22;32223;53.654;10.014;2023-06-22T04:47:07;17.30;99.90
46508;DHT22;32223;53.654;10.014;2023-06-22T04:49:35;17.30;99.90
46508;DHT22;32223;53.654;10.014;2023-06-22T04:52:06;17.20;99.90
46508;DHT22;32223;53.654;10.014;2023-06-22T04:54:33;17.30;99.90
46508;DHT22;32223;53.654;10.014;2023-06-22T04:57:02;17.40;99.90
46508;DHT22;32223;53.654;10.014;2023-06-22T04:59:30;17.50;99.90
46508;DHT22;32223;53.654;10.014;2023-06-22T05:01:57;17.60;99.90
46508;DHT22;32223;53.654;10.014;2023-06-22T05:04:23;17.60;99.90
46508;DHT22;32223;53.654;10.014;2023-06-22T05:06:52;17.70;99.90
46508;DHT22;32223;53.654;10.014;2023-06-22T05:09:18;17.70;99.90
46508;DHT22;32223;53.654;10.014;2023-06-22T05:11:45;17.80;99.90
46508;DHT22;32223;53.654;10.014;2023-06-22T05:14:10;17.90;99.90
46508;DHT22;32223;53.654;10.014;2023-06-22T05:16:36;18.00;99.90
46508;DHT22;32223;53.654;10.014;2023-06-22T05:19:02;18.10;99.90
46508;DHT22;32223;53.654;10.014;2023-06-22T05:21:29;18.20;99.90
46508;DHT22;32223;53.654;10.014;2023-06-22T05:23:55;18.10;99.90
46508;DHT22;32223;53.654;10.014;2023-06-22T05:26:25;18.20;99.90
46508;DHT22;32223;53.654;10.014;2023-06-22T05:28:51;18.20;99.90
46508;DHT22;32223;53.654;10.014;2023-06-22T05:31:17;18.20;99.90
46508;DHT22;32223;53.654;10.014;2023-06-22T05:33:45;18.20;99.90
46508;DHT22;32223;53.654;10.014;2023-06-22T05:36:11;18.40;99.90
46508;DHT22;32223;53.654;10.014;2023-06-22T05:38:38;18.40;99.90
46508;DHT22;32223;53.654;10.014;2023-06-22T05:41:04;18.50;99.90
46508;DHT22;32223;53.654;10.014;2023-06-22T05:43:30;18.60;99.90
46508;DHT22;32223;53.654;10.014;2023-06-22T05:45:56;18.60;99.90
46508;DHT22;32223;53.654;10.014;2023-06-22T05:48:22;18.70;99.90
46508;DHT22;32223;53.654;10.014;2023-06-22T05:50:47;18.80;99.90
46508;DHT22;32223;53.654;10.014;2023-06-22T05:53:13;18.90;99.90
46508;DHT22;32223;53.654;10.014;2023-06-22T05:55:39;19.00;99.90
46508;DHT22;32223;53.654;10.014;2023-06-22T05:58:04;19.10;99.90
46508;DHT22;32223;53.654;10.014;2023-06-22T06:00:30;19.20;99.90
46508;DHT22;32223;53.654;10.014;2023-06-22T06:02:56;19.30;99.90
46508;DHT22;32223;53.654;10.014;2023-06-22T06:05:22;19.40;99.90
46508;DHT22;32223;53.654;10.014;2023-06-22T06:07:49;19.60;99.90
46508;DHT22;32223;53.654;10.014;2023-06-22T06:10:15;19.60;99.90
46508;DHT22;32223;53.654;10.014;2023-06-22T06:12:40;19.60;99.90
46508;DHT22;32223;53.654;10.014;2023-06-22T06:15:06;19.70;99.90
46508;DHT22;32223;53.654;10.014;2023-06-22T06:17:32;19.70;99.90
46508;DHT22;32223;53.654;10.014;2023-06-22T06:19:59;19.80;99.90
46508;DHT22;32223;53.654;10.014;2023-06-22T06:22:25;19.90;99.90
46508;DHT22;32223;53.654;10.014;2023-06-22T06:24:50;20.00;99.90
46508;DHT22;32223;53.654;10.014;2023-06-22T06:27:16;20.10;99.90
46508;DHT22;32223;53.654;10.014;2023-06-22T06:29:44;20.20;99.90
46508;DHT22;32223;53.654;10.014;2023-06-22T06:32:14;20.30;99.90
46508;DHT22;32223;53.654;10.014;2023-06-22T06:34:39;20.30;99.90
46508;DHT22;32223;53.654;10.014;2023-06-22T06:37:06;20.20;99.90
46508;DHT22;32223;53.654;10.014;2023-06-22T06:39:31;20.10;99.90
46508;DHT22;32223;53.654;10.014;2023-06-22T06:41:57;20.10;99.90
46508;DHT22;32223;53.654;10.014;2023-06-22T06:44:22;20.10;99.90
46508;DHT22;32223;53.654;10.014;2023-06-22T06:46:48;20.00;99.90
46508;DHT22;32223;53.654;10.014;2023-06-22T06:49:14;20.00;99.90
46508;DHT22;32223;53.654;10.014;2023-06-22T06:51:39;20.00;99.90
46508;DHT22;32223;53.654;10.014;2023-06-22T06:54:05;20.10;99.90
46508;DHT22;32223;53.654;10.014;2023-06-22T06:56:30;20.20;99.90
46508;DHT22;32223;53.654;10.014;2023-06-22T06:58:58;20.30;99.90
46508;DHT22;32223;53.654;10.014;2023-06-22T07:01:24;20.30;99.90
46508;DHT22;32223;53.654;10.014;2023-06-22T07:03:49;20.40;99.90
46508;DHT22;32223;53.654;10.014;2023-06-22T07:06:15;20.50;99.90
46508;DHT22;32223;53.654;10.014;2023-06-22T07:08:41;20.60;99.90
46508;DHT22;32223;53.654;10.014;2023-06-22T07:11:08;20.70;99.90
46508;DHT22;32223;53.654;10.014;2023-06-22T07:13:33;20.90;99.90
46508;DHT22;32223;53.654;10.014;2023-06-22T07:15:59;21.10;99.90
46508;DHT22;32223;53.654;10.014;2023-06-22T07:18:25;21.30;99.90
46508;DHT22;32223;53.654;10.014;2023-06-22T07:20:52;21.40;99.90
46508;DHT22;32223;53.654;10.014;2023-06-22T07:23:17;21.50;99.90
46508;DHT22;32223;53.654;10.014;2023-06-22T07:25:43;21.70;99.90
46508;DHT22;32223;53.654;10.014;2023-06-22T07:28:09;21.90;99.90
46508;DHT22;32223;53.654;10.014;2023-06-22T07:30:35;22.00;99.90
46508;DHT22;32223;53.654;10.014;2023-06-22T07:33:01;22.20;99.90
46508;DHT22;32223;53.654;10.014;2023-06-22T07:35:28;22.30;99.90
46508;DHT22;32223;53.654;10.014;2023-06-22T07:37:54;22.30;99.90
46508;DHT22;32223;53.654;10.014;2023-06-22T07:40:20;22.20;99.90
46508;DHT22;32223;53.654;10.014;2023-06-22T07:42:45;22.20;99.90
46508;DHT22;32223;53.654;10.014;2023-06-22T07:45:13;22.20;99.90
46508;DHT22;32223;53.654;10.014;2023-06-22T07:47:39;22.20;99.90
46508;DHT22;32223;53.654;10.014;2023-06-22T07:50:05;22.30;99.90
46508;DHT22;32223;53.654;10.014;2023-06-22T07:52:31;22.40;99.90
46508;DHT22;32223;53.654;10.014;2023-06-22T07:54:57;22.40;99.90
46508;DHT22;32223;53.654;10.014;2023-06-22T07:57:22;22.50;99.90
46508;DHT22;32223;53.654;10.014;2023-06-22T07:59:48;22.60;99.90
46508;DHT22;32223;53.654;10.014;2023-06-22T08:02:14;22.80;99.90
46508;DHT22;32223;53.654;10.014;2023-06-22T08:04:39;22.80;99.90
46508;DHT22;32223;53.654;10.014;2023-06-22T08:07:06;22.80;99.90
46508;DHT22;32223;53.654;10.014;2023-06-22T08:09:33;22.90;99.90
46508;DHT22;32223;53.654;10.014;2023-06-22T08:11:59;22.80;99.90
46508;DHT22;32223;53.654;10.014;2023-06-22T08:14:29;22.80;99.90
46508;DHT22;32223;53.654;10.014;2023-06-22T08:16:54;22.90;99.90
46508;DHT22;32223;53.654;10.014;2023-06-22T08:19:20;23.10;99.90
46508;DHT22;32223;53.654;10.014;2023-06-22T08:21:46;23.20;99.90
46508;DHT22;32223;53.654;10.014;2023-06-22T08:24:11;23.50;99.90
46508;DHT22;32223;53.654;10.014;2023-06-22T08:26:37;23.60;99.90
46508;DHT22;32223;53.654;10.014;2023-06-22T08:29:06;23.70;99.90
46508;DHT22;32223;53.654;10.014;2023-06-22T08:31:32;23.90;99.90
46508;DHT22;32223;53.654;10.014;2023-06-22T08:33:59;23.90;99.90
46508;DHT22;32223;53.654;10.014;2023-06-22T08:36:24;23.80;99.90
46508;DHT22;32223;53.654;10.014;2023-06-22T08:38:51;23.80;99.90
46508;DHT22;32223;53.654;10.014;2023-06-22T08:41:17;23.60;99.90
46508;DHT22;32223;53.654;10.014;2023-06-22T08:43:43;23.60;99.90
46508;DHT22;32223;53.654;10.014;2023-06-22T08:46:10;23.60;99.90
46508;DHT22;32223;53.654;10.014;2023-06-22T08:48:36;23.60;99.90
46508;DHT22;32223;53.654;10.014;2023-06-22T08:51:01;23.60;99.90
46508;DHT22;32223;53.654;10.014;2023-06-22T08:53:28;23.60;99.90
46508;DHT22;32223;53.654;10.014;2023-06-22T08:55:53;23.90;99.90
46508;DHT22;32223;53.654;10.014;2023-06-22T08:58:19;24.10;99.90
46508;DHT22;32223;53.654;10.014;2023-06-22T09:00:46;24.40;99.90
46508;DHT22;32223;53.654;10.014;2023-06-22T09:03:12;24.50;99.90
46508;DHT22;32223;53.654;10.014;2023-06-22T09:05:38;24.70;99.90
46508;DHT22;32223;53.654;10.014;2023-06-22T09:08:04;24.90;99.90
46508;DHT22;32223;53.654;10.014;2023-06-22T09:10:29;25.10;99.90
46508;DHT22;32223;53.654;10.014;2023-06-22T09:12:55;25.10;99.90
46508;DHT22;32223;53.654;10.014;2023-06-22T09:15:20;25.10;99.90
46508;DHT22;32223;53.654;10.014;2023-06-22T09:17:46;25.00;99.90
46508;DHT22;32223;53.654;10.014;2023-06-22T09:20:12;24.80;99.90
46508;DHT22;32223;53.654;10.014;2023-06-22T09:22:38;24.60;99.90
46508;DHT22;32223;53.654;10.014;2023-06-22T09:25:04;24.80;99.90
46508;DHT22;32223;53.654;10.014;2023-06-22T09:27:30;25.00;99.90
46508;DHT22;32223;53.654;10.014;2023-06-22T09:29:56;25.10;99.90
46508;DHT22;32223;53.654;10.014;2023-06-22T09:32:24;25.30;99.90
46508;DHT22;32223;53.654;10.014;2023-06-22T09:34:50;25.50;99.90
46508;DHT22;32223;53.654;10.014;2023-06-22T09:37:15;25.60;99.90
46508;DHT22;32223;53.654;10.014;2023-06-22T09:39:41;25.70;99.90
46508;DHT22;32223;53.654;10.014;2023-06-22T09:42:07;25.80;99.90
46508;DHT22;32223;53.654;10.014;2023-06-22T09:44:33;26.00;99.90
46508;DHT22;32223;53.654;10.014;2023-06-22T09:46:58;26.10;99.90
46508;DHT22;32223;53.654;10.014;2023-06-22T09:49:24;26.10;99.90
46508;DHT22;32223;53.654;10.014;2023-06-22T09:51:49;26.20;99.90
46508;DHT22;32223;53.654;10.014;2023-06-22T09:54:16;26.20;99.90
46508;DHT22;32223;53.654;10.014;2023-06-22T09:56:41;26.30;99.90
46508;DHT22;32223;53.654;10.014;2023-06-22T09:59:07;26.30;99.90
46508;DHT22;32223;53.654;10.014;2023-06-22T10:01:33;26.30;99.90
46508;DHT22;32223;53.654;10.014;2023-06-22T10:03:58;26.20;99.90
46508;DHT22;32223;53.654;10.014;2023-06-22T10:06:24;26.00;99.90
46508;DHT22;32223;53.654;10.014;2023-06-22T10:08:51;26.00;99.90
46508;DHT22;32223;53.654;10.014;2023-06-22T10:11:17;26.10;99.90
46508;DHT22;32223;53.654;10.014;2023-06-22T10:13:43;26.30;99.90
46508;DHT22;32223;53.654;10.014;2023-06-22T10:16:08;26.60;99.90
46508;DHT22;32223;53.654;10.014;2023-06-22T10:18:34;26.90;99.90
46508;DHT22;32223;53.654;10.014;2023-06-22T10:20:59;27.10;99.90
46508;DHT22;32223;53.654;10.014;2023-06-22T10:23:25;27.20;99.90
46508;DHT22;32223;53.654;10.014;2023-06-22T10:25:51;27.20;99.90
46508;DHT22;32223;53.654;10.014;2023-06-22T10:28:16;27.40;99.90
46508;DHT22;32223;53.654;10.014;2023-06-22T10:30:42;27.50;99.90
46508;DHT22;32223;53.654;10.014;2023-06-22T10:33:09;27.60;99.90
46508;DHT22;32223;53.654;10.014;2023-06-22T10:35:35;27.70;99.90
46508;DHT22;32223;53.654;10.014;2023-06-22T10:38:03;27.70;99.90
46508;DHT22;32223;53.654;10.014;2023-06-22T10:40:28;27.40;99.90
46508;DHT22;32223;53.654;10.014;2023-06-22T10:42:54;27.20;99.90
46508;DHT22;32223;53.654;10.014;2023-06-22T10:45:20;27.20;99.90
46508;DHT22;32223;53.654;10.014;2023-06-22T10:47:45;27.30;99.90
46508;DHT22;32223;53.654;10.014;2023-06-22T10:50:11;27.60;99.90
46508;DHT22;32223;53.654;10.014;2023-06-22T10:52:37;27.80;99.90
46508;DHT22;32223;53.654;10.014;2023-06-22T10:55:03;28.00;99.90
46508;DHT22;32223;53.654;10.014;2023-06-22T10:57:29;28.10;99.90
46508;DHT22;32223;53.654;10.014;2023-06-22T10:59:55;28.30;99.90
46508;DHT22;32223;53.654;10.014;2023-06-22T11:02:20;28.40;99.90
46508;DHT22;32223;53.654;10.014;2023-06-22T11:04:46;28.70;99.90
46508;DHT22;32223;53.654;10.014;2023-06-22T11:07:13;28.80;99.90
46508;DHT22;32223;53.654;10.014;2023-06-22T11:09:39;28.60;99.90
46508;DHT22;32223;53.654;10.014;2023-06-22T11:12:05;28.40;99.90
46508;DHT22;32223;53.654;10.014;2023-06-22T11:14:31;28.20;99.90
46508;DHT22;32223;53.654;10.014;2023-06-22T11:16:59;28.10;99.90
46508;DHT22;32223;53.654;10.014;2023-06-22T11:19:24;28.20;99.90
46508;DHT22;32223;53.654;10.014;2023-06-22T11:21:50;28.00;99.90
46508;DHT22;32223;53.654;10.014;2023-06-22T11:24:16;27.80;99.90
46508;DHT22;32223;53.654;10.014;2023-06-22T11:26:42;27.60;99.90
46508;DHT22;32223;53.654;10.014;2023-06-22T11:29:08;27.40;99.90
46508;DHT22;32223;53.654;10.014;2023-06-22T11:31:34;27.00;99.90
46508;DHT22;32223;53.654;10.014;2023-06-22T11:34:00;26.90;99.90
46508;DHT22;32223;53.654;10.014;2023-06-22T11:36:26;26.90;99.90
46508;DHT22;32223;53.654;10.014;2023-06-22T11:38:52;27.30;99.90
46508;DHT22;32223;53.654;10.014;2023-06-22T11:41:18;27.70;99.90
46508;DHT22;32223;53.654;10.014;2023-06-22T11:43:44;27.70;99.90
46508;DHT22;32223;53.654;10.014;2023-06-22T11:46:10;27.70;99.90
46508;DHT22;32223;53.654;10.014;2023-06-22T11:48:36;27.60;99.90
46508;DHT22;32223;53.654;10.014;2023-06-22T11:51:02;27.40;99.90
46508;DHT22;32223;53.654;10.014;2023-06-22T11:53:29;27.20;99.90
46508;DHT22;32223;53.654;10.014;2023-06-22T11:55:55;27.10;99.90
46508;DHT22;32223;53.654;10.014;2023-06-22T11:58:21;27.10;99.90
46508;DHT22;32223;53.654;10.014;2023-06-22T12:00:47;27.20;99.90
46508;DHT22;32223;53.654;10.014;2023-06-22T12:03:12;27.40;99.90
46508;DHT22;32223;53.654;10.014;2023-06-22T12:05:40;27.60;99.90
46508;DHT22;32223;53.654;10.014;2023-06-22T12:08:06;27.70;99.90
46508;DHT22;32223;53.654;10.014;2023-06-22T12:10:31;27.80;99.90
46508;DHT22;32223;53.654;10.014;2023-06-22T12:12:57;28.20;99.90
46508;DHT22;32223;53.654;10.014;2023-06-22T12:15:25;28.50;99.90
46508;DHT22;32223;53.654;10.014;2023-06-22T12:17:50;28.50;99.90
46508;DHT22;32223;53.654;10.014;2023-06-22T12:20:16;28.40;99.90
46508;DHT22;32223;53.654;10.014;2023-06-22T12:22:42;28.20;99.90
46508;DHT22;32223;53.654;10.014;2023-06-22T12:25:11;28.20;99.90
46508;DHT22;32223;53.654;10.014;2023-06-22T12:27:37;28.30;99.90
46508;DHT22;32223;53.654;10.014;2023-06-22T12:30:03;28.50;99.90
46508;DHT22;32223;53.654;10.014;2023-06-22T12:32:29;28.50;99.90
46508;DHT22;32223;53.654;10.014;2023-06-22T12:34:55;28.60;99.90
46508;DHT22;32223;53.654;10.014;2023-06-22T12:37:21;28.60;99.90
46508;DHT22;32223;53.654;10.014;2023-06-22T12:39:47;28.60;99.90
46508;DHT22;32223;53.654;10.014;2023-06-22T12:42:12;28.70;99.90
46508;DHT22;32223;53.654;10.014;2023-06-22T12:44:39;29.10;99.90
46508;DHT22;32223;53.654;10.014;2023-06-22T12:47:08;29.50;99.90
46508;DHT22;32223;53.654;10.014;2023-06-22T12:49:37;30.10;99.90
46508;DHT22;32223;53.654;10.014;2023-06-22T12:52:03;30.40;99.90
46508;DHT22;32223;53.654;10.014;2023-06-22T12:54:28;30.50;99.90
46508;DHT22;32223;53.654;10.014;2023-06-22T12:56:55;30.70;99.90
46508;DHT22;32223;53.654;10.014;2023-06-22T12:59:21;30.60;99.30
46508;DHT22;32223;53.654;10.014;2023-06-22T13:01:46;31.00;99.00
46508;DHT22;32223;53.654;10.014;2023-06-22T13:04:12;30.90;99.20
46508;DHT22;32223;53.654;10.014;2023-06-22T13:06:41;30.80;98.70
46508;DHT22;32223;53.654;10.014;2023-06-22T13:09:07;30.80;98.40
46508;DHT22;32223;53.654;10.014;2023-06-22T13:11:34;30.80;98.60
46508;DHT22;32223;53.654;10.014;2023-06-22T13:13:59;31.10;97.90
46508;DHT22;32223;53.654;10.014;2023-06-22T13:16:25;31.30;98.60
46508;DHT22;32223;53.654;10.014;2023-06-22T13:18:50;31.50;97.00
46508;DHT22;32223;53.654;10.014;2023-06-22T13:21:16;31.90;96.60
46508;DHT22;32223;53.654;10.014;2023-06-22T13:23:41;32.70;96.20
46508;DHT22;32223;53.654;10.014;2023-06-22T13:26:07;33.40;94.30
46508;DHT22;32223;53.654;10.014;2023-06-22T13:28:33;33.60;94.10
46508;DHT22;32223;53.654;10.014;2023-06-22T13:30:59;33.50;93.60
46508;DHT22;32223;53.654;10.014;2023-06-22T13:33:24;33.70;92.30
46508;DHT22;32223;53.654;10.014;2023-06-22T13:35:50;33.60;92.10
46508;DHT22;32223;53.654;10.014;2023-06-22T13:38:15;33.30;91.00
46508;DHT22;32223;53.654;10.014;2023-06-22T13:40:42;32.90;91.60
46508;DHT22;32223;53.654;10.014;2023-06-22T13:43:08;32.10;90.80
46508;DHT22;32223;53.654;10.014;2023-06-22T13:45:34;31.40;91.90
46508;DHT22;32223;53.654;10.014;2023-06-22T13:48:00;30.90;93.10
46508;DHT22;32223;53.654;10.014;2023-06-22T13:50:25;30.70;93.60
46508;DHT22;32223;53.654;10.014;2023-06-22T13:52:51;30.50;94.10
46508;DHT22;32223;53.654;10.014;2023-06-22T13:55:18;30.50;93.90
46508;DHT22;32223;53.654;10.014;2023-06-22T13:57:46;30.30;94.30
46508;DHT22;32223;53.654;10.014;2023-06-22T14:00:12;30.00;94.30
46508;DHT22;32223;53.654;10.014;2023-06-22T14:02:38;29.90;94.20
46508;DHT22;32223;53.654;10.014;2023-06-22T14:05:05;29.70;94.40
46508;DHT22;32223;53.654;10.014;2023-06-22T14:07:31;29.70;94.60
46508;DHT22;32223;53.654;10.014;2023-06-22T14:09:57;29.70;95.20
46508;DHT22;32223;53.654;10.014;2023-06-22T14:12:23;29.70;95.50
46508;DHT22;32223;53.654;10.014;2023-06-22T14:14:49;29.50;94.90
46508;DHT22;32223;53.654;10.014;2023-06-22T14:17:14;29.40;95.20
46508;DHT22;32223;53.654;10.014;2023-06-22T14:19:40;29.10;95.40
46508;DHT22;32223;53.654;10.014;2023-06-22T14:22:06;29.00;95.50
46508;DHT22;32223;53.654;10.014;2023-06-22T14:24:31;28.80;96.30
46508;DHT22;32223;53.654;10.014;2023-06-22T14:26:57;28.80;96.40
46508;DHT22;32223;53.654;10.014;2023-06-22T14:29:23;29.00;97.20
46508;DHT22;32223;53.654;10.014;2023-06-22T14:31:49;29.60;96.80
46508;DHT22;32223;53.654;10.014;2023-06-22T14:34:15;30.20;95.50
46508;DHT22;32223;53.654;10.014;2023-06-22T14:36:41;31.10;95.60
46508;DHT22;32223;53.654;10.014;2023-06-22T14:39:08;31.30;94.80
46508;DHT22;32223;53.654;10.014;2023-06-22T14:41:33;31.10;93.40
46508;DHT22;32223;53.654;10.014;2023-06-22T14:43:59;30.40;94.30
46508;DHT22;32223;53.654;10.014;2023-06-22T14:46:25;29.80;95.10
46508;DHT22;32223;53.654;10.014;2023-06-22T14:48:50;29.00;94.90
46508;DHT22;32223;53.654;10.014;2023-06-22T14:51:16;28.40;96.10
46508;DHT22;32223;53.654;10.014;2023-06-22T14:53:43;28.00;96.90
46508;DHT22;32223;53.654;10.014;2023-06-22T14:56:09;27.80;97.70
46508;DHT22;32223;53.654;10.014;2023-06-22T14:58:34;27.70;97.60
46508;DHT22;32223;53.654;10.014;2023-06-22T15:01:03;27.60;98.30
46508;DHT22;32223;53.654;10.014;2023-06-22T15:03:30;27.40;97.80
46508;DHT22;32223;53.654;10.014;2023-06-22T15:06:00;27.20;98.40
46508;DHT22;32223;53.654;10.014;2023-06-22T15:08:25;27.20;99.00
46508;DHT22;32223;53.654;10.014;2023-06-22T15:10:51;27.10;98.90
46508;DHT22;32223;53.654;10.014;2023-06-22T15:13:17;27.00;99.40
46508;DHT22;32223;53.654;10.014;2023-06-22T15:15:44;26.90;99.20
46508;DHT22;32223;53.654;10.014;2023-06-22T15:18:09;26.80;99.90
46508;DHT22;32223;53.654;10.014;2023-06-22T15:20:35;26.70;99.90